Repto San Felipe, Puerto Rico
Current Conditions -  °F | °C
As of 12:37 PM on Thursday 30 Oct 2014 (Local Time) from TJNR Reporting Station
Broken Clouds Broken Clouds  
Wind Chill: 84°   Ceiling: 2800
Heat Index: 94°   Visibility: 10mi
Dew Point: 77°   Wind: 5mph
Humidity: 79%   Direction: 100°E
Pressure: 29.85"   Gusts: NA
Location:  18.1494°N, 65.8294°W
Report Text: TJNR 301637Z AUTO 10004KT 10SM BKN028 BKN050 29/25 A2985 RMK AO2 RAE04 P0000 T02890250 $
Loading
Personal Weather Stations






























Interactive Weather Map
Tropical Storm Tracking
New forecast layout! Learn more

10-Day Weather Forecast

Advertisements
Track Severe Weather on mobile